createdAt,value
2022-08-12T00:02:04.248Z,96423.75
2022-08-12T00:04:53.215Z,96416.44
2022-08-12T00:07:39.412Z,96412.50
2022-08-12T00:10:26.273Z,96379.81
2022-08-12T00:13:12.656Z,96409.06
2022-08-12T00:16:02.153Z,96363.19
2022-08-12T00:18:48.161Z,96412.03
2022-08-12T00:21:37.412Z,96414.91
2022-08-12T00:24:24.135Z,96409.06
2022-08-12T00:27:09.672Z,96411.78
2022-08-12T00:29:55.477Z,96407.84
2022-08-12T00:32:48.997Z,96412.06
2022-08-12T00:35:42.926Z,96413.47
2022-08-12T00:38:31.831Z,96413.31
2022-08-12T00:41:18.031Z,96421.47
2022-08-12T00:43:47.821Z,96418.38
2022-08-12T00:46:36.469Z,96404.28
2022-08-12T00:49:05.646Z,96427.38
2022-08-12T00:51:48.111Z,96426.28
2022-08-12T00:54:18.413Z,96416.50
2022-08-12T00:56:51.231Z,96425.88
2022-08-12T00:59:19.955Z,96413.41
2022-08-12T01:02:02.350Z,96383.28
2022-08-12T01:04:57.296Z,96408.63
2022-08-12T01:07:43.596Z,96407.50
2022-08-12T01:10:32.952Z,96399.91
2022-08-12T01:13:18.599Z,96405.44
2022-08-12T01:15:50.569Z,96417.81
2022-08-12T01:18:19.412Z,96398.91
2022-08-12T01:20:51.481Z,96397.66
2022-08-12T01:23:38.054Z,96388.00
2022-08-12T01:26:10.147Z,96376.91
2022-08-12T01:28:39.932Z,96383.59
2022-08-12T01:31:09.788Z,96383.88
2022-08-12T01:33:45.320Z,96381.88
2022-08-12T01:36:15.562Z,96371.28
2022-08-12T01:38:44.617Z,96338.69
2022-08-12T01:41:16.613Z,96376.97
2022-08-12T01:43:45.654Z,96370.00
2022-08-12T01:46:25.611Z,96365.53
2022-08-12T01:49:04.826Z,96363.31
2022-08-12T01:52:20.745Z,96361.72
2022-08-12T01:54:30.202Z,96368.09
2022-08-12T01:57:11.004Z,96361.72
2022-08-12T01:59:59.270Z,96367.56
2022-08-12T02:02:39.602Z,96361.19
2022-08-12T02:05:35.414Z,96366.25
2022-08-12T02:08:33.159Z,96362.03
2022-08-12T02:11:21.525Z,96374.25
2022-08-12T02:14:07.640Z,96365.19
2022-08-12T02:16:51.933Z,96319.84
2022-08-12T02:19:37.273Z,96356.19
2022-08-12T02:22:15.451Z,96357.59
2022-08-12T02:24:46.026Z,96338.59
2022-08-12T02:27:15.464Z,96347.94
2022-08-12T02:29:45.236Z,96350.38
2022-08-12T02:32:13.577Z,96340.06
2022-08-12T02:34:41.948Z,96337.19
2022-08-12T02:37:10.646Z,96341.28
2022-08-12T02:39:41.489Z,96334.91
2022-08-12T02:42:12.039Z,96341.72
2022-08-12T02:44:42.933Z,96326.63
2022-08-12T02:47:58.751Z,96330.16
2022-08-12T02:50:05.122Z,96294.66
2022-08-12T02:52:35.019Z,96331.28
2022-08-12T02:55:12.858Z,96340.63
2022-08-12T02:57:57.405Z,96316.50
2022-08-12T03:00:28.796Z,96333.75
2022-08-12T03:02:59.906Z,96339.97
2022-08-12T03:05:28.140Z,96320.03
2022-08-12T03:08:00.267Z,96329.16
2022-08-12T03:10:37.194Z,96332.13
2022-08-12T03:13:08.288Z,96321.81
2022-08-12T03:15:37.773Z,96323.59
2022-08-12T03:18:26.185Z,96316.13
2022-08-12T03:20:58.298Z,96323.31
2022-08-12T03:23:29.646Z,96326.16
2022-08-12T03:26:00.747Z,96321.00
2022-08-12T03:28:48.510Z,96339.22
2022-08-12T03:31:16.844Z,96336.06
2022-08-12T03:34:01.827Z,96332.91
2022-08-12T03:36:33.625Z,96339.16
2022-08-12T03:39:17.081Z,96332.34
2022-08-12T03:41:50.179Z,96333.19
2022-08-12T03:44:42.797Z,96330.03
2022-08-12T03:47:32.018Z,96338.03
2022-08-12T03:50:18.911Z,96339.00
2022-08-12T03:53:04.573Z,96328.41
2022-08-12T03:55:50.173Z,96299.66
2022-08-12T03:58:35.710Z,96332.47
2022-08-12T04:01:04.092Z,96332.03
2022-08-12T04:03:50.818Z,96338.56
2022-08-12T04:06:35.229Z,96330.91
2022-08-12T04:09:16.037Z,96335.81
2022-08-12T04:12:03.090Z,96334.47
2022-08-12T04:14:31.850Z,96341.97
2022-08-12T04:17:00.073Z,96329.78
2022-08-12T04:19:28.891Z,96332.25
2022-08-12T04:22:01.139Z,96331.81
2022-08-12T04:24:30.987Z,96345.16
2022-08-12T04:26:59.291Z,96342.16
2022-08-12T04:30:30.176Z,96338.19
2022-08-12T04:32:16.740Z,96337.91
2022-08-12T04:34:45.199Z,96337.50
2022-08-12T04:37:16.083Z,96349.59
2022-08-12T04:39:45.821Z,96341.19
2022-08-12T04:42:14.307Z,96338.84
2022-08-12T04:44:44.511Z,96317.03
2022-08-12T04:47:13.343Z,96351.88
2022-08-12T04:49:42.010Z,96344.28
2022-08-12T04:52:11.444Z,96350.00
2022-08-12T04:54:41.063Z,96352.28
2022-08-12T04:57:09.850Z,96357.03
2022-08-12T04:59:48.191Z,96372.63
2022-08-12T05:02:21.653Z,96367.63
2022-08-12T05:05:00.631Z,96369.75
2022-08-12T05:07:29.657Z,96371.13
2022-08-12T05:10:02.074Z,96377.22
2022-08-12T05:12:37.526Z,96381.25
2022-08-12T05:15:19.538Z,96384.66
2022-08-12T05:17:55.667Z,96391.34
2022-08-12T05:20:26.137Z,96381.94
2022-08-12T05:23:12.688Z,96381.41
2022-08-12T05:25:43.613Z,96391.34
2022-08-12T05:28:13.135Z,96392.38
2022-08-12T05:30:42.697Z,96388.56
2022-08-12T05:33:12.226Z,96393.44
2022-08-12T05:35:43.167Z,96384.59
2022-08-12T05:38:30.332Z,96392.44
2022-08-12T05:41:00.463Z,96390.38
2022-08-12T05:43:29.049Z,96389.16
2022-08-12T05:45:57.596Z,96386.66
2022-08-12T05:48:25.738Z,96390.75
2022-08-12T05:50:53.871Z,96399.50
2022-08-12T05:53:22.113Z,96395.16
2022-08-12T05:55:50.304Z,96400.41
2022-08-12T05:58:20.633Z,96351.44
2022-08-12T06:00:48.824Z,96389.50
2022-08-12T06:03:19.765Z,96387.88
2022-08-12T06:05:55.071Z,96378.72
2022-08-12T06:08:24.479Z,96384.41
2022-08-12T06:10:53.091Z,96384.94
2022-08-12T06:13:27.945Z,96392.38
2022-08-12T06:15:57.311Z,96376.00
2022-08-12T06:18:29.730Z,96378.91
2022-08-12T06:21:01.880Z,96374.25
2022-08-12T06:23:31.830Z,96377.44
2022-08-12T06:26:00.754Z,96376.38
2022-08-12T06:28:31.049Z,96380.66
2022-08-12T06:31:24.790Z,96380.19
2022-08-12T06:33:57.664Z,96379.34
2022-08-12T06:36:33.589Z,96387.06
2022-08-12T06:39:02.212Z,96368.19
2022-08-12T06:42:27.752Z,96371.78
2022-08-12T06:44:37.600Z,96367.88
2022-08-12T06:47:06.102Z,96373.28
2022-08-12T06:49:36.776Z,96357.81
2022-08-12T06:52:07.464Z,96360.25
2022-08-12T06:54:35.589Z,96330.91
2022-08-12T06:57:56.880Z,96317.81
2022-08-12T06:59:53.498Z,96385.16
2022-08-12T07:02:23.038Z,96359.88
2022-08-12T07:04:55.034Z,96360.91
2022-08-12T07:07:23.224Z,96355.25
2022-08-12T07:10:04.048Z,96351.31
2022-08-12T07:12:36.967Z,96355.56
2022-08-12T07:15:08.381Z,96355.69
2022-08-12T07:17:39.151Z,96352.25
2022-08-12T07:20:29.526Z,96341.50
2022-08-12T07:23:00.385Z,96341.97
2022-08-12T07:25:40.648Z,96341.00
2022-08-12T07:28:16.400Z,96333.25
2022-08-12T07:30:48.586Z,96339.72
2022-08-12T07:33:18.018Z,96327.22
2022-08-12T07:45:13.593Z,96323.38
2022-08-12T07:47:43.958Z,96306.69
2022-08-12T07:50:13.739Z,96287.50
2022-08-12T07:52:43.938Z,96320.47
2022-08-12T07:55:12.856Z,96307.25
2022-08-12T07:57:50.352Z,96317.69
2022-08-12T08:00:18.941Z,96326.38
2022-08-12T08:02:49.378Z,96320.19
2022-08-12T08:05:18.907Z,96329.88
2022-08-12T08:07:48.738Z,96333.50
2022-08-12T08:10:18.420Z,96294.28
2022-08-12T08:12:56.401Z,96325.13
2022-08-12T08:15:51.087Z,96337.88
2022-08-12T08:18:26.339Z,96336.16
2022-08-12T08:20:56.693Z,96335.63
2022-08-12T08:23:55.583Z,96329.78
2022-08-12T08:26:27.147Z,96339.75
2022-08-12T08:28:55.603Z,96344.53
2022-08-12T08:31:23.766Z,96346.59
2022-08-12T08:34:09.118Z,96346.75
2022-08-12T08:36:44.036Z,96342.00
2022-08-12T08:39:17.028Z,96339.78
2022-08-12T08:42:19.186Z,96344.16
2022-08-12T08:44:50.354Z,96358.44
2022-08-12T08:47:26.993Z,96358.19
2022-08-12T08:50:01.315Z,96347.63
2022-08-12T08:52:39.388Z,96330.41
2022-08-12T08:55:10.520Z,96360.41
2022-08-12T08:57:43.875Z,96351.59
2022-08-12T09:00:16.487Z,96353.59
2022-08-12T09:02:49.190Z,96361.00
2022-08-12T09:05:43.204Z,96355.25
2022-08-12T09:08:23.135Z,96342.81
2022-08-12T09:12:07.633Z,96353.75
2022-08-12T09:14:18.665Z,96356.47
2022-08-12T09:16:50.157Z,96365.38
2022-08-12T09:19:27.308Z,96357.03
2022-08-12T09:22:00.167Z,96363.78
2022-08-12T09:24:30.923Z,96322.97
2022-08-12T09:27:00.115Z,96353.53
2022-08-12T09:30:12.040Z,96349.59
2022-08-12T09:32:56.161Z,96346.44
2022-08-12T09:35:21.988Z,96347.69
2022-08-12T09:37:58.661Z,96349.34
2022-08-12T09:40:56.140Z,96348.22
2022-08-12T09:43:32.627Z,96345.56
2022-08-12T09:46:06.525Z,96351.66
2022-08-12T09:48:56.384Z,96340.03
2022-08-12T09:51:37.618Z,96338.25
2022-08-12T09:54:32.645Z,96336.19
2022-08-12T09:57:03.887Z,96302.88
2022-08-12T10:00:15.330Z,96333.53
2022-08-12T10:02:45.121Z,96337.63
2022-08-12T10:05:20.628Z,96333.56
2022-08-12T10:07:49.582Z,96328.94
2022-08-12T10:10:22.340Z,96307.09
2022-08-12T10:13:09.076Z,96319.47
2022-08-12T10:16:02.978Z,96322.50
2022-08-12T10:18:27.547Z,96325.50
2022-08-12T10:20:57.137Z,96308.16
2022-08-12T10:23:39.392Z,96308.34
2022-08-12T10:26:36.607Z,96312.41
2022-08-12T10:30:11.866Z,96290.56
2022-08-12T10:32:20.815Z,96307.28
2022-08-12T10:34:53.384Z,96305.19
2022-08-12T10:38:34.201Z,96308.13
2022-08-12T10:40:20.430Z,96296.88
2022-08-12T10:43:08.883Z,96283.66
2022-08-12T10:45:38.388Z,96297.47
2022-08-12T10:48:21.768Z,96278.63
2022-08-12T10:51:03.344Z,96282.50
2022-08-12T10:53:46.769Z,96275.75
2022-08-12T10:56:16.215Z,96282.13
2022-08-12T10:58:47.969Z,96276.50
2022-08-12T11:01:50.143Z,96246.41
2022-08-12T11:04:19.436Z,96266.81
2022-08-12T11:07:05.631Z,96281.63
2022-08-12T11:10:00.355Z,96277.31
2022-08-12T11:12:55.020Z,96268.63
2022-08-12T11:16:04.094Z,96273.78
2022-08-12T11:18:46.118Z,96255.25
2022-08-12T11:21:58.504Z,96266.69
2022-08-12T11:24:51.601Z,96249.94
2022-08-12T11:27:21.971Z,96245.03
2022-08-12T11:30:06.518Z,96256.09
2022-08-12T11:32:39.196Z,96254.16
2022-08-12T11:35:09.253Z,96236.75
2022-08-12T11:37:58.467Z,96249.00
2022-08-12T11:40:28.489Z,96239.41
2022-08-12T11:43:00.684Z,96238.66
2022-08-12T11:45:46.906Z,96231.19
2022-08-12T11:48:17.095Z,96238.50
2022-08-12T11:50:46.960Z,96245.16
2022-08-12T11:53:59.519Z,96235.94
2022-08-12T11:56:06.529Z,96240.84
2022-08-12T12:01:02.698Z,96237.13
2022-08-12T12:02:02.557Z,96238.34
2022-08-12T12:04:22.656Z,96255.13
2022-08-12T12:07:06.995Z,96250.72
2022-08-12T12:09:52.608Z,96246.06
2022-08-12T12:12:23.426Z,96266.31
2022-08-12T12:14:55.010Z,96234.72
2022-08-12T12:17:24.809Z,96253.00
2022-08-12T12:19:55.194Z,96260.88
2022-08-12T12:22:30.805Z,96266.19
2022-08-12T12:25:12.598Z,96253.09
2022-08-12T12:28:05.162Z,96191.28
2022-08-12T12:30:34.972Z,96255.63
2022-08-12T12:33:03.187Z,96260.38
2022-08-12T12:36:05.964Z,96258.13
2022-08-12T12:38:25.465Z,96257.13
2022-08-12T12:40:54.156Z,96261.34
2022-08-12T12:43:28.929Z,96257.22
2022-08-12T12:46:10.669Z,96252.28
2022-08-12T12:48:44.078Z,96248.78
2022-08-12T12:51:48.162Z,96253.22
2022-08-12T12:54:10.551Z,96248.31
2022-08-12T12:56:42.722Z,96246.25
2022-08-12T12:59:34.970Z,96258.41
2022-08-12T13:02:02.098Z,96227.47
2022-08-12T13:04:37.159Z,96255.41
2022-08-12T13:07:08.066Z,96239.88
2022-08-12T13:09:37.002Z,96252.53
2022-08-12T13:12:08.991Z,96264.81
2022-08-12T13:14:39.589Z,96262.72
2022-08-12T13:17:09.724Z,96205.72
2022-08-12T13:19:46.820Z,96245.25
2022-08-12T13:22:21.414Z,96248.44
2022-08-12T13:24:55.721Z,96224.53
2022-08-12T13:27:35.061Z,96260.69
2022-08-12T13:30:13.061Z,96225.06
2022-08-12T13:32:42.715Z,96244.47
2022-08-12T13:35:19.730Z,96252.44
2022-08-12T13:37:55.217Z,96249.00
2022-08-12T13:40:25.018Z,96250.41
2022-08-12T13:42:58.021Z,96249.19
2022-08-12T13:45:26.977Z,96252.09
2022-08-12T13:48:00.047Z,96247.31
2022-08-12T13:50:32.632Z,96240.09
2022-08-12T13:53:23.163Z,96243.34
2022-08-12T13:55:59.667Z,96239.34
2022-08-12T13:58:32.770Z,96240.59
2022-08-12T14:01:05.766Z,96216.81
2022-08-12T14:03:51.430Z,96232.47
2022-08-12T14:06:21.670Z,96235.81
2022-08-12T14:08:56.430Z,96219.94
2022-08-12T14:11:27.838Z,96230.94
2022-08-12T14:14:06.127Z,96226.13
2022-08-12T14:16:49.046Z,96235.56
2022-08-12T14:19:22.366Z,96237.75
2022-08-12T14:22:00.501Z,96232.06
2022-08-12T14:24:40.918Z,96232.50
2022-08-12T14:27:11.021Z,96229.66
2022-08-12T14:30:04.869Z,96232.16
2022-08-12T14:32:34.610Z,96224.38
2022-08-12T14:35:09.417Z,96221.38
2022-08-12T14:37:57.414Z,96213.69
2022-08-12T14:40:29.598Z,96211.38
2022-08-12T14:42:58.861Z,96211.31
2022-08-12T14:45:45.401Z,96206.06
2022-08-12T14:48:18.635Z,96208.31
2022-08-12T14:51:02.821Z,96202.34
2022-08-12T14:55:18.225Z,96199.66
2022-08-12T14:59:57.446Z,96199.09
2022-08-12T15:02:21.742Z,96170.00
2022-08-12T15:04:59.591Z,96194.13
2022-08-12T15:07:33.609Z,96193.19
2022-08-12T15:10:31.725Z,96199.84
2022-08-12T15:13:07.338Z,96198.59
2022-08-12T15:15:45.542Z,96188.56
2022-08-12T15:18:21.086Z,96194.84
2022-08-12T15:20:51.431Z,96182.84
2022-08-12T15:23:21.629Z,96178.19
2022-08-12T15:26:00.059Z,96183.31
2022-08-12T15:28:34.402Z,96185.22
2022-08-12T15:31:02.735Z,96189.03
2022-08-12T15:33:44.782Z,96160.28
2022-08-12T15:36:14.550Z,96187.78
2022-08-12T15:38:47.956Z,96193.06
2022-08-12T15:41:16.497Z,96187.94
2022-08-12T15:44:17.026Z,96186.22
2022-08-12T15:46:34.439Z,96182.88
2022-08-12T15:49:03.988Z,96179.25
2022-08-12T15:51:58.831Z,96171.41
2022-08-12T15:54:35.181Z,96174.78
2022-08-12T15:57:07.725Z,96180.47
2022-08-12T15:59:51.717Z,96189.75
2022-08-12T16:02:41.892Z,96185.97
2022-08-12T16:06:12.956Z,96182.38
2022-08-12T16:08:18.453Z,96174.97
2022-08-12T16:10:48.835Z,96178.19
2022-08-12T16:13:32.262Z,96183.44
2022-08-12T16:16:03.797Z,96186.66
2022-08-12T16:18:35.663Z,96182.38
2022-08-12T16:21:09.376Z,96181.22
2022-08-12T16:23:55.755Z,96154.63
2022-08-12T16:26:32.191Z,96172.53
2022-08-12T16:29:14.776Z,96188.56
2022-08-12T16:31:46.690Z,96193.81
2022-08-12T16:34:42.166Z,96177.31
2022-08-12T16:37:08.133Z,96188.38
2022-08-12T16:40:01.229Z,96188.94
2022-08-12T16:42:28.511Z,96176.63
2022-08-12T16:44:59.618Z,96184.94
2022-08-12T16:47:57.400Z,96177.69
2022-08-12T16:50:31.092Z,96177.69
2022-08-12T16:52:59.889Z,96181.78
2022-08-12T16:55:41.981Z,96141.53
2022-08-12T16:58:18.682Z,96179.16
2022-08-12T17:00:57.073Z,96173.00
2022-08-12T17:03:28.779Z,96156.72
2022-08-12T17:05:58.632Z,96167.63
2022-08-12T17:08:28.997Z,96162.25
2022-08-12T17:10:59.072Z,96160.88
2022-08-12T17:13:28.556Z,96167.78
2022-08-12T17:16:06.141Z,96162.78
2022-08-12T17:18:45.496Z,96172.59
2022-08-12T17:21:41.786Z,96160.34
2022-08-12T17:24:22.365Z,96160.69
2022-08-12T17:26:54.124Z,96171.28
2022-08-12T17:29:24.379Z,96160.13
2022-08-12T17:32:14.913Z,96175.53
2022-08-12T17:35:01.994Z,96173.56
2022-08-12T17:37:30.167Z,96171.16
2022-08-12T17:40:12.099Z,96158.59
2022-08-12T17:42:47.297Z,96155.19
2022-08-12T17:45:19.367Z,96169.34
2022-08-12T17:48:04.637Z,96175.16
2022-08-12T17:50:38.134Z,96176.28
2022-08-12T17:53:10.085Z,96175.00
2022-08-12T17:55:47.268Z,96184.28
2022-08-12T17:58:17.754Z,96121.13
2022-08-12T18:00:48.085Z,96181.66
2022-08-12T18:03:58.031Z,96192.47
2022-08-12T18:06:14.060Z,96190.56
2022-08-12T18:08:53.469Z,96195.41
2022-08-12T18:12:06.693Z,96191.03
2022-08-12T18:14:31.450Z,96200.19
2022-08-12T18:17:02.440Z,96190.78
2022-08-12T18:20:03.790Z,96191.47
2022-08-12T18:22:30.576Z,96186.75
2022-08-12T18:25:03.719Z,96185.84
2022-08-12T18:27:44.832Z,96197.88
2022-08-12T18:30:20.362Z,96162.22
2022-08-12T18:32:59.243Z,96209.34
2022-08-12T18:35:46.529Z,96204.69
2022-08-12T18:38:19.046Z,96203.59
2022-08-12T18:41:06.081Z,96178.69
2022-08-12T18:43:57.206Z,96210.97
2022-08-12T18:46:29.853Z,96207.97
2022-08-12T18:49:17.667Z,96218.75
2022-08-12T18:51:55.213Z,96233.63
2022-08-12T18:54:35.171Z,96233.34
2022-08-12T18:57:16.791Z,96228.31
2022-08-12T19:00:02.097Z,96230.53
2022-08-12T19:02:44.574Z,96228.47
2022-08-12T19:05:52.927Z,96232.94
2022-08-12T19:08:16.958Z,96227.69
2022-08-12T19:10:51.254Z,96234.38
2022-08-12T19:13:37.767Z,96227.59
2022-08-12T19:16:10.929Z,96224.44
2022-08-12T19:18:45.137Z,96234.00
2022-08-12T19:21:16.617Z,96235.81
2022-08-12T19:24:05.808Z,96239.06
2022-08-12T19:26:35.129Z,96244.25
2022-08-12T19:29:05.135Z,96242.94
2022-08-12T19:31:58.048Z,96206.03
2022-08-12T19:37:27.213Z,96242.34
2022-08-12T19:40:09.197Z,96242.03
2022-08-12T19:42:53.406Z,96232.34
2022-08-12T19:45:41.790Z,96235.59
2022-08-12T19:48:16.529Z,96236.13
2022-08-12T19:50:49.861Z,96228.00
2022-08-12T19:53:19.437Z,96238.56
2022-08-12T19:55:50.753Z,96211.53
2022-08-12T19:58:22.907Z,96209.06
2022-08-12T20:00:54.706Z,96235.00
2022-08-12T20:03:40.579Z,96236.31
2022-08-12T20:06:21.598Z,96227.06
2022-08-12T20:08:56.426Z,96229.34
2022-08-12T20:12:12.608Z,96221.69
2022-08-12T20:14:19.283Z,96217.19
2022-08-12T20:16:51.845Z,96232.41
2022-08-12T20:19:52.344Z,96232.75
2022-08-12T20:22:16.748Z,96228.19
2022-08-12T20:24:54.958Z,96223.84
2022-08-12T20:27:29.330Z,96229.19
2022-08-12T20:30:16.256Z,96228.19
2022-08-12T20:32:53.942Z,96220.44
2022-08-12T20:35:24.782Z,96226.56
2022-08-12T20:38:06.795Z,96227.72
2022-08-12T20:40:42.336Z,96175.00
2022-08-12T20:43:19.129Z,96213.28
2022-08-12T20:45:57.413Z,96213.28
2022-08-12T20:48:29.395Z,96218.13
2022-08-12T20:51:04.399Z,96209.69
2022-08-12T20:53:58.281Z,96216.31
2022-08-12T20:56:30.250Z,96176.28
2022-08-12T20:59:05.041Z,96215.22
2022-08-12T21:01:45.908Z,96197.06
2022-08-12T21:04:34.396Z,96217.97
2022-08-12T21:07:09.396Z,96205.16
2022-08-12T21:09:42.542Z,96205.50
2022-08-12T21:12:31.595Z,96218.28
2022-08-12T21:15:18.121Z,96220.06
2022-08-12T21:18:11.237Z,96208.38
2022-08-12T21:20:52.714Z,96206.06
2022-08-12T21:23:22.948Z,96218.53
2022-08-12T21:25:52.664Z,96220.28
2022-08-12T21:28:31.284Z,96220.44
2022-08-12T21:32:36.284Z,96212.22
2022-08-12T21:34:08.668Z,96220.34
2022-08-12T21:36:39.793Z,96215.81
2022-08-12T21:39:18.106Z,96219.34
2022-08-12T21:41:51.002Z,96210.59
2022-08-12T21:44:24.150Z,96216.59
2022-08-12T21:47:12.138Z,96209.88
2022-08-12T21:50:04.043Z,96206.09
2022-08-12T21:52:36.596Z,96211.25
2022-08-12T21:55:08.297Z,96204.44
2022-08-12T21:57:50.786Z,96214.94
2022-08-12T22:00:21.316Z,96207.84
2022-08-12T22:03:07.751Z,96216.94
2022-08-12T22:05:55.025Z,96224.25
2022-08-12T22:08:26.060Z,96225.34
2022-08-12T22:10:56.305Z,96219.34
2022-08-12T22:14:04.261Z,96226.75
2022-08-12T22:16:14.557Z,96215.38
2022-08-12T22:18:50.157Z,96217.44
2022-08-12T22:21:22.212Z,96221.97
2022-08-12T22:24:05.478Z,96180.59
2022-08-12T22:26:37.452Z,96222.53
2022-08-12T22:29:27.364Z,96224.41
2022-08-12T22:31:56.149Z,96215.06
2022-08-12T22:34:33.304Z,96208.94
2022-08-12T22:37:05.737Z,96215.47
2022-08-12T22:39:44.121Z,96202.88
2022-08-12T22:42:30.771Z,96199.44
2022-08-12T22:45:31.875Z,96196.63
2022-08-12T22:48:21.963Z,96198.34
2022-08-12T22:50:59.225Z,96198.81
2022-08-12T22:53:36.201Z,96194.28
2022-08-12T22:56:07.251Z,96207.41
2022-08-12T22:58:40.601Z,96198.47
2022-08-12T23:01:21.148Z,96193.94
2022-08-12T23:04:00.485Z,96193.44
2022-08-12T23:06:31.167Z,96186.34
2022-08-12T23:09:00.857Z,96179.28
2022-08-12T23:11:33.893Z,96184.19
2022-08-12T23:14:09.286Z,96142.53
2022-08-12T23:16:40.744Z,96185.22
2022-08-12T23:19:17.596Z,96171.00
2022-08-12T23:22:06.332Z,96177.63
2022-08-12T23:24:53.732Z,96146.34
2022-08-12T23:27:50.283Z,96172.59
2022-08-12T23:30:24.922Z,96121.56
2022-08-12T23:33:00.623Z,96163.34
2022-08-12T23:35:58.789Z,96169.84
2022-08-12T23:38:28.949Z,96171.78
2022-08-12T23:41:03.630Z,96171.94
2022-08-12T23:43:38.967Z,96160.59
2022-08-12T23:46:10.543Z,96170.94
2022-08-12T23:48:38.846Z,96171.75
2022-08-12T23:51:23.655Z,96180.63
2022-08-12T23:53:55.352Z,96167.66
2022-08-12T23:56:25.921Z,96169.59
2022-08-12T23:58:57.564Z,96168.75
